Time;durP1;ratioP1;P1;durP2;ratioP2;P2;SDS_P1;SDS_P2;PMS_P1;PMS_P2;Temp;Humidity;BMP_temperature;BMP_pressure;BME280_temperature;BME280_humidity;BME280_pressure;Samples;Min_cycle;Max_cycle;Signal;HPM_P1;HPM_P2
2023/01/26 00:01:42;;;;;;;22.63;11.07;;;2.40;85.80;;;;;;5025713;28;20272;-60
2023/01/26 00:04:08;;;;;;;23.73;12.20;;;2.40;85.80;;;;;;5025204;28;20037;-59
2023/01/26 00:06:33;;;;;;;24.20;11.85;;;2.40;85.90;;;;;;5025941;28;20038;-59
2023/01/26 00:08:59;;;;;;;23.80;11.35;;;2.40;86.00;;;;;;5026506;28;20045;-58
2023/01/26 00:11:27;;;;;;;22.63;11.63;;;2.40;86.00;;;;;;5021134;28;20034;-60
2023/01/26 00:13:54;;;;;;;22.35;11.15;;;2.30;85.90;;;;;;5025616;28;20405;-59
2023/01/26 00:16:20;;;;;;;22.17;11.85;;;2.30;86.00;;;;;;5026010;28;20026;-57
2023/01/26 00:18:46;;;;;;;21.60;9.43;;;2.30;86.10;;;;;;5024581;28;20051;-59
2023/01/26 00:21:18;;;;;;;20.38;9.32;;;2.30;85.90;;;;;;5025046;28;20124;-59
2023/01/26 00:23:44;;;;;;;18.85;9.13;;;2.20;85.40;;;;;;5024524;28;20425;-59
2023/01/26 00:26:13;;;;;;;17.92;8.60;;;2.20;85.60;;;;;;5025928;28;20500;-59
2023/01/26 00:28:39;;;;;;;18.80;10.15;;;2.10;85.70;;;;;;5024408;28;20038;-58
2023/01/26 00:31:07;;;;;;;21.05;10.70;;;2.10;86.00;;;;;;5024749;28;20413;-61
2023/01/26 00:33:33;;;;;;;18.10;9.70;;;2.10;85.80;;;;;;5021566;28;20036;-58
2023/01/26 00:35:59;;;;;;;17.52;9.07;;;2.10;86.00;;;;;;5017197;28;20037;-60
2023/01/26 00:38:24;;;;;;;22.73;10.75;;;2.10;86.10;;;;;;5021875;28;20030;-60
2023/01/26 00:40:50;;;;;;;21.65;10.40;;;2.10;86.30;;;;;;5018608;28;20320;-60
2023/01/26 00:43:16;;;;;;;20.10;9.68;;;2.10;86.30;;;;;;5014028;28;20221;-60
2023/01/26 00:45:42;;;;;;;21.60;10.63;;;2.10;86.50;;;;;;5019158;28;20053;-59
2023/01/26 00:48:07;;;;;;;19.92;10.30;;;2.10;86.50;;;;;;5020493;28;20033;-59
2023/01/26 00:50:33;;;;;;;20.65;9.88;;;2.00;86.50;;;;;;5019924;28;20054;-58
2023/01/26 00:52:59;;;;;;;23.38;11.00;;;2.10;86.50;;;;;;5015165;28;20485;-60
2023/01/26 00:55:31;;;;;;;22.80;11.15;;;2.10;86.50;;;;;;5017255;28;20033;-58
2023/01/26 00:58:06;;;;;;;22.33;11.40;;;2.10;86.60;;;;;;5021787;28;20456;-57
2023/01/26 01:00:34;;;;;;;24.60;11.55;;;2.20;86.80;;;;;;5015890;28;20139;-57
2023/01/26 01:03:00;;;;;;;23.27;11.02;;;2.20;86.70;;;;;;5020608;28;20042;-59
2023/01/26 01:05:28;;;;;;;23.45;11.73;;;2.20;86.70;;;;;;5019337;28;20041;-58
2023/01/26 01:07:54;;;;;;;24.45;11.38;;;2.20;86.70;;;;;;5020572;28;20049;-60
2023/01/26 01:10:20;;;;;;;21.77;11.05;;;2.20;86.70;;;;;;5019951;28;20116;-58
2023/01/26 01:12:46;;;;;;;24.33;11.85;;;2.20;86.70;;;;;;5016530;28;20045;-58
2023/01/26 01:15:12;;;;;;;23.38;11.68;;;2.20;86.80;;;;;;5016103;28;20046;-59
2023/01/26 01:17:37;;;;;;;24.00;11.32;;;2.10;86.80;;;;;;5018422;28;20120;-59
2023/01/26 01:20:04;;;;;;;23.65;11.35;;;2.20;86.90;;;;;;5018763;28;20048;-60
2023/01/26 01:22:31;;;;;;;24.60;12.00;;;2.20;86.90;;;;;;5020615;28;20030;-59
2023/01/26 01:24:57;;;;;;;23.60;11.90;;;2.10;86.80;;;;;;5018029;28;20404;-58
2023/01/26 01:27:23;;;;;;;24.48;11.15;;;2.20;87.00;;;;;;5021725;28;20120;-57
2023/01/26 01:29:50;;;;;;;24.35;11.77;;;2.10;87.00;;;;;;5020466;28;20069;-59
2023/01/26 01:32:15;;;;;;;24.73;11.65;;;2.20;87.10;;;;;;5018145;28;20574;-58
2023/01/26 01:34:41;;;;;;;21.00;11.35;;;2.20;87.10;;;;;;5021917;28;20038;-59
2023/01/26 01:37:06;;;;;;;22.90;11.15;;;2.20;87.10;;;;;;5022160;28;20049;-59
2023/01/26 01:39:32;;;;;;;22.90;10.90;;;2.20;87.10;;;;;;5019885;28;20042;-59
2023/01/26 01:41:57;;;;;;;22.92;11.23;;;2.20;87.00;;;;;;5022773;28;20042;-57
2023/01/26 01:44:24;;;;;;;23.95;11.45;;;2.20;87.00;;;;;;5014378;28;20124;-59
2023/01/26 01:46:55;;;;;;;25.70;11.95;;;2.20;87.00;;;;;;5019180;28;20030;-57
2023/01/26 01:49:29;;;;;;;22.90;11.68;;;2.20;87.00;;;;;;5021524;28;20485;-60
2023/01/26 01:52:09;;;;;;;22.13;10.88;;;2.20;87.00;;;;;;5018787;28;20035;-57
2023/01/26 01:54:47;;;;;;;24.95;11.23;;;2.20;87.00;;;;;;5017719;28;20029;-58
2023/01/26 01:57:26;;;;;;;22.48;11.40;;;2.20;87.10;;;;;;5020927;28;21787;-58
2023/01/26 02:00:06;;;;;;;20.27;10.93;;;2.20;87.20;;;;;;5020155;28;20061;-59
2023/01/26 02:02:32;;;;;;;22.02;10.82;;;2.20;87.10;;;;;;5025128;28;20048;-57
2023/01/26 02:05:06;;;;;;;25.00;11.38;;;2.20;87.10;;;;;;5024417;28;20038;-58
2023/01/26 02:07:32;;;;;;;26.50;11.83;;;2.20;87.10;;;;;;5022619;28;20634;-58
2023/01/26 02:10:17;;;;;;;24.52;11.02;;;2.20;87.20;;;;;;5024806;28;20041;-57
2023/01/26 02:12:45;;;;;;;24.23;11.35;;;2.20;87.20;;;;;;5016376;28;20037;-60
2023/01/26 02:15:11;;;;;;;23.05;11.20;;;2.20;87.10;;;;;;5021578;28;20028;-59
2023/01/26 02:17:38;;;;;;;24.60;12.10;;;2.20;87.20;;;;;;5021196;28;20037;-59
2023/01/26 02:20:27;;;;;;;24.20;11.88;;;2.20;87.20;;;;;;5022550;28;20540;-60
2023/01/26 02:23:05;;;;;;;23.98;11.13;;;2.20;87.30;;;;;;5019892;28;20041;-58
2023/01/26 02:25:48;;;;;;;22.13;11.35;;;2.20;87.20;;;;;;5021902;28;20057;-60
2023/01/26 02:28:14;;;;;;;24.30;11.25;;;2.20;87.20;;;;;;5022434;28;20030;-60
2023/01/26 02:30:40;;;;;;;24.42;11.10;;;2.20;87.20;;;;;;5020908;28;20034;-59
2023/01/26 02:33:05;;;;;;;24.63;11.05;;;2.20;87.20;;;;;;5022380;28;20041;-59
2023/01/26 02:35:31;;;;;;;25.23;10.98;;;2.20;87.20;;;;;;5022649;28;20046;-59
2023/01/26 02:37:56;;;;;;;22.52;10.48;;;2.20;87.20;;;;;;5022851;28;20037;-56
2023/01/26 02:40:47;;;;;;;20.30;10.20;;;2.20;87.20;;;;;;5023718;28;20524;-58
2023/01/26 02:43:12;;;;;;;23.67;10.00;;;2.20;87.30;;;;;;5020691;28;20038;-57
2023/01/26 02:45:39;;;;;;;22.25;10.52;;;2.20;87.20;;;;;;5022283;28;20107;-60
2023/01/26 02:48:06;;;;;;;19.10;9.80;;;2.20;87.20;;;;;;5022198;28;20160;-58
2023/01/26 02:50:33;;;;;;;20.23;10.10;;;2.20;87.20;;;;;;5024377;28;20109;-59
2023/01/26 02:52:59;;;;;;;19.75;9.68;;;2.20;87.20;;;;;;5024270;28;20041;-56
2023/01/26 02:55:26;;;;;;;18.52;9.27;;;2.10;87.50;;;;;;5024283;28;20045;-55
2023/01/26 02:57:57;;;;;;;22.85;10.45;;;2.10;87.20;;;;;;5022351;28;20030;-56
2023/01/26 03:00:25;;;;;;;20.02;10.13;;;2.10;87.30;;;;;;5022069;28;20037;-59
2023/01/26 03:02:54;;;;;;;22.27;10.05;;;2.10;87.30;;;;;;5023461;28;20048;-56
2023/01/26 03:05:19;;;;;;;21.52;9.98;;;2.10;87.30;;;;;;5024972;28;20053;-58
2023/01/26 03:07:45;;;;;;;21.55;10.00;;;2.10;87.30;;;;;;5023314;28;20042;-56
2023/01/26 03:10:11;;;;;;;22.33;9.68;;;2.10;87.40;;;;;;5018006;28;20505;-59
2023/01/26 03:12:37;;;;;;;20.83;9.63;;;2.10;87.50;;;;;;5019977;28;20044;-60
2023/01/26 03:17:49;;;;;;;20.98;9.35;;;2.00;87.50;;;;;;5020634;28;20063;-59
2023/01/26 03:28:27;;;;;;;20.45;9.15;;;2.00;87.70;;;;;;5019501;28;20048;-59
2023/01/26 03:30:56;;;;;;;19.33;9.77;;;2.00;87.70;;;;;;5021283;28;20033;-58
2023/01/26 03:33:23;;;;;;;19.30;9.20;;;2.00;87.70;;;;;;5020615;28;20045;-57
2023/01/26 03:35:52;;;;;;;19.33;9.63;;;2.00;87.90;;;;;;5022269;28;20099;-55
2023/01/26 03:38:17;;;;;;;21.67;10.18;;;2.00;87.90;;;;;;5024201;28;20064;-58
2023/01/26 03:57:08;;;;;;;17.88;8.70;;;2.10;87.30;;;;;;5021332;28;20072;-59
2023/01/26 03:59:37;;;;;;;18.20;8.52;;;2.20;87.40;;;;;;5021668;28;20033;-57
2023/01/26 04:10:26;;;;;;;19.42;9.63;;;2.20;87.60;;;;;;5021502;28;20048;-58
2023/01/26 04:23:56;;;;;;;15.30;8.05;;;2.30;87.30;;;;;;5021835;28;19929;-59
2023/01/26 04:26:23;;;;;;;19.13;9.10;;;2.30;87.10;;;;;;5023633;28;20033;-60
2023/01/26 04:28:49;;;;;;;19.73;9.43;;;2.30;87.00;;;;;;5024152;28;20515;-60
2023/01/26 04:31:15;;;;;;;23.42;9.68;;;2.30;86.90;;;;;;5024010;28;20048;-58
2023/01/26 04:33:41;;;;;;;20.30;9.65;;;2.20;86.90;;;;;;5023303;28;20037;-60
2023/01/26 04:36:08;;;;;;;21.90;9.95;;;2.20;86.80;;;;;;5026501;28;20040;-59
2023/01/26 04:38:34;;;;;;;19.15;9.18;;;2.20;86.90;;;;;;5025647;28;20034;-58
2023/01/26 04:40:59;;;;;;;20.85;9.18;;;2.20;87.00;;;;;;5024754;28;20045;-60
2023/01/26 04:43:25;;;;;;;20.95;9.40;;;2.20;87.90;;;;;;5025147;28;20374;-58
2023/01/26 04:46:03;;;;;;;22.13;9.98;;;2.10;87.00;;;;;;5024087;28;20030;-60
2023/01/26 04:48:29;;;;;;;22.55;10.60;;;2.10;87.20;;;;;;5023099;28;20037;-58
2023/01/26 04:50:57;;;;;;;24.13;10.45;;;2.10;87.20;;;;;;5019143;28;20610;-58
2023/01/26 04:53:23;;;;;;;21.20;9.65;;;2.10;87.30;;;;;;5024905;28;20100;-57
2023/01/26 04:55:49;;;;;;;21.27;9.98;;;2.10;87.30;;;;;;5026876;28;20041;-57
2023/01/26 04:58:14;;;;;;;21.27;9.50;;;2.10;87.30;;;;;;5026598;28;20037;-58
2023/01/26 05:00:40;;;;;;;21.83;9.77;;;2.10;87.40;;;;;;5022312;28;20029;-59
2023/01/26 05:03:05;;;;;;;23.15;9.88;;;2.10;87.40;;;;;;5018342;28;20501;-56
2023/01/26 05:05:36;;;;;;;19.88;9.02;;;2.10;87.50;;;;;;5020095;28;20042;-58
2023/01/26 05:08:02;;;;;;;19.65;9.60;;;2.10;87.60;;;;;;5018098;28;20041;-60
2023/01/26 05:10:28;;;;;;;19.20;9.52;;;2.10;88.50;;;;;;5020515;28;20057;-58
2023/01/26 05:12:53;;;;;;;19.50;9.25;;;2.10;87.60;;;;;;5018272;28;20041;-59
2023/01/26 05:15:19;;;;;;;20.30;9.63;;;2.10;87.70;;;;;;5021438;28;20596;-58
2023/01/26 05:17:45;;;;;;;18.52;8.75;;;2.10;87.70;;;;;;5023109;28;20037;-58
2023/01/26 05:20:11;;;;;;;21.40;9.32;;;2.10;87.70;;;;;;5018586;28;20440;-58
2023/01/26 05:22:36;;;;;;;18.75;8.75;;;2.10;87.70;;;;;;5020344;28;20042;-59
2023/01/26 05:25:02;;;;;;;19.85;8.73;;;2.10;87.70;;;;;;5020616;28;20136;-60
2023/01/26 05:27:28;;;;;;;18.92;9.07;;;2.10;87.70;;;;;;5017841;28;20042;-59
2023/01/26 05:29:58;;;;;;;23.15;9.88;;;2.10;87.50;;;;;;5018537;28;20551;-56
2023/01/26 05:32:28;;;;;;;18.58;9.35;;;2.20;87.50;;;;;;5020386;28;20143;-60
2023/01/26 05:34:53;;;;;;;19.65;9.57;;;2.20;87.50;;;;;;5025588;28;20352;-57
2023/01/26 05:37:19;;;;;;;19.85;9.63;;;2.20;87.60;;;;;;5023380;28;20493;-59
2023/01/26 05:39:45;;;;;;;18.92;9.32;;;2.20;87.60;;;;;;5025278;28;20034;-57
2023/01/26 05:42:11;;;;;;;19.13;9.23;;;2.20;87.60;;;;;;5026187;28;20026;-60
2023/01/26 05:44:37;;;;;;;21.35;10.27;;;2.20;87.60;;;;;;5024034;28;20410;-57
2023/01/26 05:47:03;;;;;;;26.38;11.05;;;2.20;87.50;;;;;;5025021;28;20034;-60
2023/01/26 05:49:28;;;;;;;21.48;11.05;;;2.30;87.50;;;;;;5020350;28;20039;-60
2023/01/26 05:51:54;;;;;;;23.65;10.50;;;2.30;87.50;;;;;;5022125;28;20041;-58
2023/01/26 05:54:20;;;;;;;21.23;10.18;;;2.30;87.30;;;;;;5024572;28;20021;-58
2023/01/26 05:56:45;;;;;;;23.60;10.27;;;2.30;87.30;;;;;;5025327;28;20037;-60
2023/01/26 05:59:11;;;;;;;20.60;9.88;;;2.30;87.20;;;;;;5025326;28;20040;-60
2023/01/26 06:01:36;;;;;;;19.65;10.30;;;2.30;87.20;;;;;;5020206;28;20100;-60
2023/01/26 06:04:02;;;;;;;18.60;9.40;;;2.30;87.20;;;;;;5019755;28;20294;-61
2023/01/26 06:06:28;;;;;;;21.30;9.75;;;2.50;87.30;;;;;;5020189;28;20045;-60
2023/01/26 06:08:53;;;;;;;17.42;8.85;;;2.40;87.20;;;;;;5021939;28;20516;-59
2023/01/26 06:11:19;;;;;;;18.88;9.45;;;2.40;87.20;;;;;;5021090;28;20045;-59
2023/01/26 06:13:44;;;;;;;15.38;8.38;;;2.40;87.10;;;;;;5021930;28;20389;-59
2023/01/26 06:16:10;;;;;;;20.48;9.23;;;2.40;87.00;;;;;;5025551;28;20036;-57
2023/01/26 06:18:35;;;;;;;19.33;8.40;;;2.40;87.70;;;;;;5020927;28;20038;-58
2023/01/26 06:21:01;;;;;;;16.48;8.00;;;2.40;86.80;;;;;;5021598;28;20053;-60
2023/01/26 06:23:27;;;;;;;18.88;9.38;;;2.50;86.80;;;;;;5021638;28;20408;-58
2023/01/26 06:25:52;;;;;;;18.70;9.80;;;2.50;86.60;;;;;;5022322;28;20041;-57
2023/01/26 06:28:20;;;;;;;16.88;8.40;;;2.50;86.50;;;;;;5017257;28;20040;-58
2023/01/26 06:30:46;;;;;;;18.30;9.10;;;2.50;86.30;;;;;;5023629;28;20513;-60
2023/01/26 06:33:12;;;;;;;16.83;7.80;;;2.40;86.00;;;;;;5025467;28;20033;-57
2023/01/26 06:35:37;;;;;;;17.92;8.60;;;2.40;86.10;;;;;;5017908;28;20037;-57
2023/01/26 06:38:03;;;;;;;16.55;7.97;;;2.30;86.10;;;;;;5018331;28;20053;-57
2023/01/26 06:40:28;;;;;;;15.18;8.23;;;2.30;86.30;;;;;;5023148;28;20029;-58
2023/01/26 06:42:54;;;;;;;18.52;8.60;;;2.30;86.40;;;;;;5021909;28;20653;-58
2023/01/26 06:45:20;;;;;;;17.25;8.40;;;2.30;86.60;;;;;;5020299;28;20034;-59
2023/01/26 06:47:50;;;;;;;16.02;8.32;;;2.30;86.90;;;;;;5019059;28;20152;-55
2023/01/26 06:50:21;;;;;;;15.30;7.88;;;2.30;87.00;;;;;;5016208;28;20094;-58
2023/01/26 06:52:50;;;;;;;14.07;7.47;;;2.40;87.00;;;;;;5018616;28;20045;-56
2023/01/26 06:55:31;;;;;;;18.30;8.25;;;2.30;86.70;;;;;;5019753;28;20658;-59
2023/01/26 06:57:56;;;;;;;16.92;8.00;;;2.40;86.70;;;;;;5023328;28;20030;-58
2023/01/26 07:00:22;;;;;;;14.10;7.30;;;2.40;86.80;;;;;;5020225;28;20425;-57
2023/01/26 07:02:47;;;;;;;15.95;7.90;;;2.40;86.50;;;;;;5018831;28;20041;-59
2023/01/26 07:05:13;;;;;;;17.23;8.18;;;2.40;86.30;;;;;;5023232;28;21763;-55
2023/01/26 07:07:38;;;;;;;14.82;7.22;;;2.50;86.40;;;;;;5024994;28;20543;-58
2023/01/26 07:10:07;;;;;;;14.40;7.40;;;2.50;86.40;;;;;;5024683;28;20523;-56
2023/01/26 07:12:44;;;;;;;14.35;7.57;;;2.50;86.40;;;;;;5022501;28;20041;-58
2023/01/26 07:15:11;;;;;;;17.38;7.35;;;2.50;86.20;;;;;;5025210;28;20385;-58
2023/01/26 07:17:39;;;;;;;15.40;7.85;;;2.50;86.30;;;;;;5026093;28;20041;-60
2023/01/26 07:20:06;;;;;;;13.98;7.55;;;2.50;86.20;;;;;;5025239;28;20120;-58
2023/01/26 07:22:32;;;;;;;17.65;8.18;;;2.50;86.10;;;;;;5024353;28;20037;-59
2023/01/26 07:24:57;;;;;;;16.75;8.18;;;2.50;86.20;;;;;;5018322;28;20386;-60
2023/01/26 07:27:23;;;;;;;18.13;8.68;;;2.50;86.10;;;;;;5025009;28;20091;-60
2023/01/26 07:29:50;;;;;;;15.52;8.13;;;2.50;86.10;;;;;;5024154;28;20413;-60
2023/01/26 07:32:16;;;;;;;16.15;8.18;;;2.50;86.10;;;;;;5023875;28;20045;-57
2023/01/26 07:34:41;;;;;;;16.70;8.48;;;2.60;86.20;;;;;;5023441;28;20038;-59
2023/01/26 07:37:07;;;;;;;16.48;7.95;;;2.60;86.10;;;;;;5023417;28;20046;-58
2023/01/26 07:39:32;;;;;;;17.17;7.97;;;2.50;86.00;;;;;;5018822;28;20029;-59
2023/01/26 07:41:58;;;;;;;14.95;7.55;;;2.60;86.00;;;;;;5019298;28;20440;-59
2023/01/26 07:44:23;;;;;;;15.07;6.70;;;2.60;86.00;;;;;;5023314;28;20036;-60
2023/01/26 07:46:49;;;;;;;13.98;7.00;;;2.70;85.80;;;;;;5018379;28;20048;-60
2023/01/26 07:49:15;;;;;;;14.25;7.70;;;2.60;85.70;;;;;;5010470;28;20045;-58
2023/01/26 07:51:40;;;;;;;19.80;9.07;;;2.70;85.60;;;;;;5020470;28;20477;-60
2023/01/26 07:54:06;;;;;;;16.55;8.02;;;2.70;85.40;;;;;;5022865;28;20284;-58
2023/01/26 07:56:32;;;;;;;15.20;7.68;;;2.70;85.30;;;;;;5022250;28;20587;-59
2023/01/26 07:58:58;;;;;;;14.88;8.05;;;2.70;85.10;;;;;;5022786;28;20280;-60
2023/01/26 08:01:24;;;;;;;18.77;8.20;;;2.70;85.10;;;;;;5018415;28;20651;-59
2023/01/26 08:03:52;;;;;;;17.40;9.00;;;2.60;85.20;;;;;;5021638;28;20039;-59
2023/01/26 08:06:18;;;;;;;17.40;7.88;;;2.70;85.20;;;;;;5020672;28;20044;-60
2023/01/26 08:08:49;;;;;;;16.17;7.45;;;2.60;85.10;;;;;;5017733;28;20034;-61
2023/01/26 08:11:15;;;;;;;15.07;7.78;;;2.60;84.90;;;;;;5018092;28;20065;-60
2023/01/26 08:13:41;;;;;;;16.52;7.57;;;2.60;84.90;;;;;;5022138;28;20420;-59
2023/01/26 08:16:10;;;;;;;18.70;9.50;;;2.60;84.80;;;;;;5023586;28;20026;-60
2023/01/26 08:18:40;;;;;;;18.92;9.52;;;2.60;84.80;;;;;;5021853;28;20037;-59
2023/01/26 08:21:05;;;;;;;19.08;9.20;;;2.50;84.80;;;;;;5022826;28;20537;-54
2023/01/26 08:23:31;;;;;;;19.40;10.85;;;2.50;85.00;;;;;;5022560;28;20041;-58
2023/01/26 08:26:06;;;;;;;18.65;9.85;;;2.50;85.20;;;;;;5021370;28;20048;-59
2023/01/26 08:28:32;;;;;;;16.00;8.32;;;2.50;85.10;;;;;;5023327;28;20037;-60
2023/01/26 08:31:14;;;;;;;15.18;7.70;;;2.50;85.20;;;;;;5024326;28;20034;-57
2023/01/26 08:33:42;;;;;;;13.95;7.68;;;2.60;84.90;;;;;;5021799;28;20026;-57
2023/01/26 08:36:11;;;;;;;11.38;6.47;;;2.60;84.90;;;;;;5019761;28;20087;-58
2023/01/26 08:38:37;;;;;;;13.60;6.95;;;2.60;84.70;;;;;;5015947;28;20032;-58
2023/01/26 08:41:04;;;;;;;15.27;7.72;;;2.60;84.60;;;;;;5015921;28;20029;-59
2023/01/26 08:43:29;;;;;;;16.45;10.73;;;2.60;84.50;;;;;;5016005;28;20481;-58
2023/01/26 08:45:55;;;;;;;12.88;7.47;;;2.60;84.40;;;;;;5019249;28;20080;-59
2023/01/26 08:48:21;;;;;;;14.27;7.57;;;2.60;84.20;;;;;;5019377;28;20029;-57
2023/01/26 08:50:47;;;;;;;13.40;7.40;;;2.60;84.20;;;;;;5020763;28;20178;-54
2023/01/26 08:53:12;;;;;;;14.07;7.03;;;2.60;84.20;;;;;;5022898;28;20045;-58
2023/01/26 08:55:38;;;;;;;13.35;7.60;;;2.60;84.30;;;;;;5019796;28;20572;-60
2023/01/26 08:58:04;;;;;;;14.00;8.02;;;2.60;84.40;;;;;;5019829;28;20033;-58
2023/01/26 09:00:30;;;;;;;14.15;7.28;;;2.60;85.30;;;;;;5020123;28;20055;-56
2023/01/26 09:03:00;;;;;;;23.77;13.70;;;2.60;84.70;;;;;;5018260;28;20029;-58
2023/01/26 09:05:26;;;;;;;18.27;11.57;;;2.60;84.60;;;;;;5023348;28;20056;-57
2023/01/26 09:07:52;;;;;;;19.00;11.98;;;2.60;84.60;;;;;;5019523;28;20120;-58
2023/01/26 09:10:18;;;;;;;17.75;10.35;;;2.60;84.20;;;;;;5021503;28;20536;-55
2023/01/26 09:12:43;;;;;;;15.18;9.60;;;2.60;84.20;;;;;;5017876;28;20042;-57
2023/01/26 09:15:09;;;;;;;13.32;8.05;;;2.60;84.20;;;;;;5021589;28;20041;-56
2023/01/26 09:17:36;;;;;;;19.38;7.68;;;2.60;84.30;;;;;;5024152;28;20419;-58
2023/01/26 09:20:02;;;;;;;12.60;6.82;;;2.70;84.40;;;;;;5024195;28;20046;-58
2023/01/26 09:22:29;;;;;;;11.68;6.25;;;2.70;84.20;;;;;;5022404;28;20100;-57
2023/01/26 09:24:55;;;;;;;11.52;5.93;;;2.70;84.00;;;;;;5023046;28;20072;-55
2023/01/26 09:27:20;;;;;;;9.80;5.32;;;2.70;84.00;;;;;;5023884;28;20081;-58
2023/01/26 09:29:46;;;;;;;10.65;6.13;;;2.70;83.80;;;;;;5019340;28;20099;-60
2023/01/26 09:32:12;;;;;;;11.48;6.43;;;2.70;83.90;;;;;;5021083;28;20045;-57
2023/01/26 09:34:37;;;;;;;13.40;6.57;;;2.70;83.80;;;;;;5024964;28;20060;-58
2023/01/26 09:37:05;;;;;;;11.00;6.10;;;2.70;83.80;;;;;;5018504;28;20030;-59
2023/01/26 09:39:30;;;;;;;13.38;6.63;;;2.70;83.90;;;;;;5022838;28;20037;-61
2023/01/26 09:42:09;;;;;;;12.75;6.10;;;2.70;83.90;;;;;;5022819;28;20187;-58
2023/01/26 09:44:50;;;;;;;10.70;6.15;;;2.70;83.50;;;;;;5023929;28;20513;-60
2023/01/26 09:47:21;;;;;;;11.82;6.50;;;2.70;83.70;;;;;;5023763;28;20059;-58
2023/01/26 09:50:24;;;;;;;12.52;6.95;;;2.80;84.00;;;;;;5024162;28;20030;-57
2023/01/26 09:52:54;;;;;;;13.10;6.43;;;2.80;83.60;;;;;;5015456;28;20041;-61
2023/01/26 09:55:22;;;;;;;12.75;6.18;;;2.80;84.00;;;;;;5021595;28;20125;-56
2023/01/26 09:57:59;;;;;;;11.32;6.10;;;2.80;84.00;;;;;;5022319;28;20095;-57
2023/01/26 10:00:41;;;;;;;10.50;5.60;;;2.90;84.10;;;;;;5021289;28;20040;-59
2023/01/26 10:03:15;;;;;;;11.73;5.90;;;2.90;84.00;;;;;;5021523;28;20595;-59
2023/01/26 10:05:56;;;;;;;12.70;6.75;;;2.90;83.90;;;;;;5022516;28;20041;-59
2023/01/26 10:08:22;;;;;;;11.98;6.35;;;3.00;83.80;;;;;;5019396;28;20182;-61
2023/01/26 10:11:19;;;;;;;11.88;6.47;;;3.00;83.90;;;;;;5017063;28;20117;-59
2023/01/26 10:13:52;;;;;;;11.55;6.05;;;3.00;83.10;;;;;;5018726;28;20053;-58
2023/01/26 10:16:18;;;;;;;10.73;6.07;;;3.00;83.30;;;;;;5033251;28;20029;-58
2023/01/26 10:19:13;;;;;;;11.88;5.80;;;3.00;83.40;;;;;;5024014;28;20117;-60
2023/01/26 10:21:43;;;;;;;10.20;4.95;;;3.00;82.90;;;;;;5025227;28;20054;-59
2023/01/26 10:24:10;;;;;;;10.23;5.78;;;3.00;83.40;;;;;;5022167;28;20033;-59
2023/01/26 10:26:36;;;;;;;9.77;5.55;;;3.10;83.60;;;;;;5019994;28;20041;-60
2023/01/26 10:29:03;;;;;;;13.55;6.78;;;3.10;83.70;;;;;;5024918;28;20037;-57
2023/01/26 10:31:33;;;;;;;11.38;6.05;;;3.10;83.50;;;;;;5021198;28;20418;-60
2023/01/26 10:34:14;;;;;;;14.80;6.95;;;3.10;83.30;;;;;;5026048;28;20159;-58
2023/01/26 10:36:42;;;;;;;13.85;7.05;;;3.20;83.20;;;;;;5023668;28;20034;-60
2023/01/26 10:39:10;;;;;;;12.88;7.30;;;3.20;83.20;;;;;;5019957;28;20033;-60
2023/01/26 10:41:36;;;;;;;13.48;7.38;;;3.20;83.20;;;;;;5024444;28;20037;-59
2023/01/26 10:44:20;;;;;;;17.52;7.68;;;3.20;83.20;;;;;;5024764;28;20544;-61
2023/01/26 10:47:00;;;;;;;15.32;7.45;;;3.20;83.40;;;;;;5017509;28;20037;-60
2023/01/26 10:49:27;;;;;;;12.65;6.93;;;3.20;83.50;;;;;;5020298;28;20037;-60
2023/01/26 10:52:17;;;;;;;13.25;7.10;;;3.20;83.50;;;;;;5020590;28;20128;-61
2023/01/26 10:54:44;;;;;;;11.73;6.18;;;3.20;83.00;;;;;;5016575;28;20279;-61
2023/01/26 10:57:27;;;;;;;11.98;6.63;;;3.20;82.90;;;;;;5022962;28;20030;-61
2023/01/26 10:59:59;;;;;;;10.95;5.97;;;3.20;82.10;;;;;;5021585;28;20048;-59
2023/01/26 11:02:28;;;;;;;13.80;7.03;;;3.10;82.00;;;;;;5021453;28;20442;-61
2023/01/26 11:05:17;;;;;;;14.27;7.15;;;3.00;82.20;;;;;;5020397;28;20038;-61
2023/01/26 11:07:45;;;;;;;14.32;7.30;;;3.00;82.30;;;;;;5018487;28;20374;-59
2023/01/26 11:10:30;;;;;;;18.17;8.48;;;3.00;82.90;;;;;;5024095;28;20060;-60
2023/01/26 11:13:20;;;;;;;18.45;8.90;;;2.90;82.90;;;;;;5019847;28;20040;-59
2023/01/26 11:15:48;;;;;;;14.23;7.22;;;2.90;82.30;;;;;;5022959;28;20037;-60
2023/01/26 11:18:22;;;;;;;15.57;7.80;;;2.90;82.60;;;;;;5024055;28;20044;-59
2023/01/26 11:21:21;;;;;;;17.83;8.75;;;2.90;82.70;;;;;;5026152;28;20033;-60
2023/01/26 11:24:20;;;;;;;16.60;7.65;;;2.80;82.60;;;;;;5017529;28;20050;-59
2023/01/26 11:27:12;;;;;;;17.77;7.85;;;2.80;83.20;;;;;;5024712;28;20046;-58
2023/01/26 11:29:56;;;;;;;16.30;8.05;;;2.80;83.50;;;;;;5026083;28;20065;-57
2023/01/26 11:32:34;;;;;;;16.35;8.25;;;2.80;83.80;;;;;;5025112;28;20048;-58
2023/01/26 11:35:35;;;;;;;15.75;7.88;;;2.80;83.80;;;;;;5025460;28;20029;-60
2023/01/26 11:38:08;;;;;;;16.60;7.82;;;2.90;83.80;;;;;;5009402;28;20634;-59
2023/01/26 11:41:01;;;;;;;16.13;7.93;;;2.90;83.90;;;;;;5025526;28;20029;-60
2023/01/26 11:43:42;;;;;;;16.45;8.10;;;2.90;83.90;;;;;;5025763;28;20456;-59
2023/01/26 11:46:22;;;;;;;16.02;7.55;;;2.90;83.50;;;;;;5026464;28;20175;-59
2023/01/26 11:49:13;;;;;;;14.05;7.32;;;2.90;83.60;;;;;;5023445;28;20345;-60
2023/01/26 11:52:13;;;;;;;16.08;7.63;;;2.90;83.30;;;;;;5023158;28;20436;-60
2023/01/26 11:54:57;;;;;;;13.60;7.10;;;2.90;83.00;;;;;;5024406;28;20136;-59
2023/01/26 11:57:47;;;;;;;13.15;6.88;;;2.90;82.70;;;;;;5020809;28;20036;-57
2023/01/26 12:00:22;;;;;;;15.30;7.68;;;2.80;83.70;;;;;;5023700;28;20045;-60
2023/01/26 12:03:17;;;;;;;15.70;7.80;;;2.80;83.10;;;;;;5022561;28;20038;-60
2023/01/26 12:05:47;;;;;;;17.10;7.70;;;2.80;83.50;;;;;;5025358;28;20042;-59
2023/01/26 12:08:37;;;;;;;16.55;7.53;;;2.80;83.80;;;;;;5020219;28;20544;-58
2023/01/26 12:11:22;;;;;;;15.23;7.40;;;2.80;83.70;;;;;;5022188;28;20061;-60
2023/01/26 12:14:03;;;;;;;18.40;8.65;;;2.80;83.90;;;;;;5024989;28;20045;-60
2023/01/26 12:16:45;;;;;;;19.77;8.55;;;2.80;83.90;;;;;;5023710;28;20037;-61
2023/01/26 12:19:21;;;;;;;17.70;8.15;;;2.90;84.10;;;;;;5021838;28;20045;-58
2023/01/26 12:21:49;;;;;;;18.20;8.60;;;2.90;84.10;;;;;;5023628;28;20087;-57
2023/01/26 12:24:21;;;;;;;17.52;8.13;;;2.90;84.90;;;;;;5022504;28;20507;-57
2023/01/26 12:26:51;;;;;;;16.92;7.70;;;2.90;84.10;;;;;;5021437;28;20037;-60
2023/01/26 12:30:10;;;;;;;15.32;7.63;;;2.90;84.10;;;;;;5021939;28;20826;-57
2023/01/26 12:32:35;;;;;;;18.13;8.23;;;3.00;84.10;;;;;;5011818;28;20037;-61
2023/01/26 12:35:01;;;;;;;16.08;8.27;;;3.00;84.20;;;;;;5020110;28;20041;-59
2023/01/26 12:37:52;;;;;;;16.15;8.02;;;3.00;83.40;;;;;;5019871;28;20045;-61
2023/01/26 12:40:35;;;;;;;17.08;8.32;;;3.00;83.40;;;;;;5021454;28;20029;-58
2023/01/26 12:43:38;;;;;;;16.00;8.27;;;3.00;83.70;;;;;;5024246;28;20061;-60
2023/01/26 12:46:05;;;;;;;15.52;8.05;;;3.00;83.90;;;;;;5022330;28;20116;-58
2023/01/26 12:48:45;;;;;;;13.90;7.85;;;3.00;84.20;;;;;;5021466;28;20167;-62
2023/01/26 12:51:29;;;;;;;14.30;7.53;;;3.00;84.20;;;;;;5023582;28;20416;-59
2023/01/26 12:54:31;;;;;;;13.82;6.88;;;3.00;83.90;;;;;;5024001;28;20455;-59
2023/01/26 12:56:59;;;;;;;12.05;6.05;;;3.00;84.40;;;;;;5023189;28;20032;-58
2023/01/26 12:59:36;;;;;;;13.57;6.70;;;3.00;83.40;;;;;;5023046;28;20029;-59
2023/01/26 13:02:14;;;;;;;10.95;6.05;;;3.00;82.60;;;;;;5023622;28;20029;-61
2023/01/26 13:04:41;;;;;;;10.23;5.78;;;3.00;82.60;;;;;;5022648;28;20877;-60
2023/01/26 13:07:29;;;;;;;11.80;6.00;;;3.00;83.10;;;;;;5022437;28;20045;-60
2023/01/26 13:10:21;;;;;;;12.00;6.00;;;2.90;82.70;;;;;;5020509;28;20116;-61
2023/01/26 13:12:48;;;;;;;13.02;6.22;;;3.00;82.80;;;;;;5019261;28;20041;-60
2023/01/26 13:15:16;;;;;;;12.98;6.93;;;2.90;83.00;;;;;;5020794;28;20037;-61
2023/01/26 13:17:53;;;;;;;15.10;7.47;;;2.90;83.00;;;;;;5018255;28;20580;-61
2023/01/26 13:20:43;;;;;;;12.60;7.20;;;2.90;83.00;;;;;;5022641;28;20535;-60
2023/01/26 13:23:40;;;;;;;14.75;7.82;;;2.90;83.70;;;;;;5021382;28;20452;-59
2023/01/26 13:26:16;;;;;;;14.55;8.13;;;3.00;82.50;;;;;;5019587;28;20379;-60
2023/01/26 13:28:43;;;;;;;13.77;7.82;;;3.00;82.90;;;;;;5019335;28;20045;-61
2023/01/26 13:31:10;;;;;;;14.88;8.32;;;3.00;83.00;;;;;;5017586;28;20042;-61
2023/01/26 13:33:36;;;;;;;14.25;8.15;;;3.00;83.00;;;;;;5022026;28;20045;-60
2023/01/26 13:36:09;;;;;;;14.82;7.68;;;3.00;82.40;;;;;;5021099;28;20052;-61
2023/01/26 13:38:40;;;;;;;13.18;7.60;;;3.00;82.60;;;;;;5019137;28;20610;-60
2023/01/26 13:41:09;;;;;;;14.68;8.15;;;3.00;82.80;;;;;;5018894;28;20048;-57
2023/01/26 13:43:58;;;;;;;12.13;6.72;;;3.00;82.80;;;;;;5022066;28;20037;-59
2023/01/26 13:46:30;;;;;;;10.52;6.43;;;3.00;82.50;;;;;;5021978;28;20575;-59
2023/01/26 13:48:56;;;;;;;11.80;6.75;;;2.90;82.80;;;;;;5023432;28;20528;-59
2023/01/26 13:51:28;;;;;;;10.85;6.20;;;2.90;82.80;;;;;;5021718;28;20049;-56